William P Hobby Airport
KHOU : now visible

Airfield :











YOU CAN JOIN US ON...

 
LOGIN :

Register | Disclaimer

   EN    FR    IT 

 









Legend :    VFR   Marginal VFR   IFR   Intensive IFR   Very Intensive IFR
Visi :
Ceiling :
>= 8 km
>= 3000ft
5 to 8 km
1000 to 3000 ft
1500m to 5 km
500 to 1000 ft
800 to 1500m
200 to 500 ft
< 800m
< 200 ft
Symbols :   Thunderstorms  Fog  Heavy snow  Heavy precipitations  Wind > 20 kt






- Airport Elevation : 46 ft
- IATA code : HOU


KHOU - William P Hobby

CURRENT METAR :
  • 170353Z 15004KT 9SM BKN250 16/14 A2997 RMK AO2 SLP152 T01610139

EXPIRED METARs :
  • 170253Z 16008KT 8SM SCT005 BKN030 17/14 A2997 RMK AO2 SLP154 T01670144 51006
  • 170229Z 16008KT 8SM SCT005 BKN030 17/15 A2997 RMK AO2 T01720150
  • 170153Z 16010KT 7SM OVC005 17/15 A2997 RMK AO2 SLP153 T01670150
  • 170120Z 16008KT 9SM FEW007 17/15 A2996 RMK AO2 T01720150

TAF KHOU
Valid from the 17 at 04:00 until the 18 at 00:00 UTC


170342Z 1704/1724 16008KT P6SM SCT005 BKN030
FM170600 17005KT 4SM BR BKN008 OVC250
FM170800 17005KT 1/2SM FG BKN002 OVC250
FM171500 17006KT 3SM BR SCT003 OVC023
FM171600 17008KT P6SM BKN025 OVC250
FM172000 18009G15KT P6SM SCT025 OVC250



MET'MAP, your aeronautical weather chart ! - Copyright ORBIFLY December 2007 - Disclaimer

ORBIFLY MET'MAP TEAM :

Programming & Development : Alexandra Zaïnal
Concept & original design : Baudouin d'Aumeries
Assistance for programming : Marc-Olivier Méhu
Technical & hardware support : Manuel Goepfert

Contact : metmap@orbifly.com




SOURCES & CREDITS :

   NOAA       Earth
Advisory